Time;durP1;ratioP1;P1;durP2;ratioP2;P2;SDS_P1;SDS_P2;PMS_P1;PMS_P2;Temp;Humidity;BMP_temperature;BMP_pressure;BME280_temperature;BME280_humidity;BME280_pressure;Samples;Min_cycle;Max_cycle;Signal;HPM_P1;HPM_P2
2022/01/10 00:00:37;;;;;;;0.08;0.00;;;2.90;99.90;;;;;;5036141;28;20049;-88
2022/01/10 00:03:07;;;;;;;0.00;0.00;;;2.90;99.90;;;;;;5036110;28;20057;-88
2022/01/10 00:05:39;;;;;;;0.00;0.00;;;2.90;99.90;;;;;;5036290;28;20055;-88
2022/01/10 00:08:05;;;;;;;0.00;0.00;;;2.80;99.90;;;;;;5036094;28;20492;-88
2022/01/10 00:10:34;;;;;;;0.00;0.00;;;2.80;99.90;;;;;;5036807;28;20045;-87
2022/01/10 00:13:11;;;;;;;0.05;0.00;;;2.80;99.90;;;;;;5053042;28;20142;-88
2022/01/10 00:15:44;;;;;;;1.98;0.10;;;2.70;99.90;;;;;;5036910;28;20075;-88
2022/01/10 00:18:11;;;;;;;0.10;0.10;;;2.60;99.90;;;;;;5036066;28;20054;-88
2022/01/10 00:20:40;;;;;;;0.00;0.00;;;4.40;99.90;;;;;;5036087;28;20480;-88
2022/01/10 00:23:09;;;;;;;0.00;0.00;;;2.70;99.90;;;;;;5036319;28;20106;-88
2022/01/10 00:25:41;;;;;;;0.45;0.10;;;2.60;99.90;;;;;;5052096;28;20407;-88
2022/01/10 00:28:12;;;;;;;;;;;2.60;99.90;;;;;;5054080;28;20060;-88
2022/01/10 00:30:41;;;;;;;0.00;0.00;;;2.70;99.90;;;;;;5035838;28;19920;-88
2022/01/10 00:33:16;;;;;;;0.00;0.00;;;2.80;99.90;;;;;;5036033;28;20044;-88
2022/01/10 00:35:46;;;;;;;0.00;0.00;;;4.00;99.90;;;;;;5053154;28;20392;-88
2022/01/10 00:38:13;;;;;;;0.15;0.15;;;2.50;99.90;;;;;;5052337;28;20145;-88
2022/01/10 00:40:42;;;;;;;0.00;0.00;;;2.50;99.90;;;;;;5052432;28;20049;-88
2022/01/10 00:43:16;;;;;;;2.97;0.38;;;2.50;99.90;;;;;;5052393;28;20128;-88
2022/01/10 00:45:55;;;;;;;0.00;0.00;;;2.50;99.90;;;;;;5036610;28;20053;-88
2022/01/10 00:48:26;;;;;;;0.00;0.00;;;2.50;99.90;;;;;;5036171;28;20091;-88
2022/01/10 00:50:56;;;;;;;0.00;0.00;;;2.40;99.90;;;;;;5035350;28;20041;-87
2022/01/10 00:53:34;;;;;;;0.00;0.00;;;2.40;99.90;;;;;;5053013;28;20056;-88
2022/01/10 00:56:03;;;;;;;0.08;0.03;;;2.40;99.90;;;;;;5035485;28;20052;-88
2022/01/10 00:58:41;;;;;;;0.32;0.03;;;2.40;99.90;;;;;;5035885;28;20045;-88
2022/01/10 01:01:26;;;;;;;0.00;0.00;;;2.40;99.90;;;;;;5035558;28;20102;-88
2022/01/10 01:03:55;;;;;;;0.00;0.00;;;2.40;99.90;;;;;;5035649;28;20225;-88
2022/01/10 01:06:32;;;;;;;0.10;0.00;;;2.80;99.90;;;;;;5035918;28;20049;-88
2022/01/10 01:09:03;;;;;;;0.10;0.10;;;2.40;99.90;;;;;;5036624;28;20076;-88
2022/01/10 01:12:05;;;;;;;0.05;0.05;;;2.40;99.90;;;;;;5035737;28;20083;-88
2022/01/10 01:20:27;;;;;;;0.00;0.00;;;2.20;99.90;;;;;;4979533;28;20057;-88
2022/01/10 01:25:39;;;;;;;0.00;0.00;;;2.10;99.90;;;;;;4979356;28;20058;-88
2022/01/10 01:28:08;;;;;;;0.20;0.20;;;2.10;99.90;;;;;;4979472;28;20066;-89
2022/01/10 01:30:34;;;;;;;0.00;0.00;;;2.10;99.90;;;;;;4979403;28;20039;-89
2022/01/10 01:33:00;;;;;;;0.00;0.00;;;2.10;99.90;;;;;;4979127;28;20471;-89
2022/01/10 01:35:28;;;;;;;0.00;0.00;;;2.10;99.90;;;;;;4979393;28;20054;-89
2022/01/10 01:37:55;;;;;;;0.10;0.00;;;2.00;99.90;;;;;;4961966;28;20050;-89
2022/01/10 01:40:22;;;;;;;0.00;0.00;;;2.00;99.90;;;;;;4978954;28;20141;-89
2022/01/10 01:42:57;;;;;;;0.00;0.00;;;2.00;99.90;;;;;;4962924;28;20541;-89
2022/01/10 01:45:55;;;;;;;0.00;0.00;;;2.00;99.90;;;;;;4978579;28;20158;-89
2022/01/10 01:48:24;;;;;;;0.00;0.00;;;2.20;99.90;;;;;;4956503;29;20057;-89
2022/01/10 01:50:53;;;;;;;3.72;0.20;;;2.00;99.90;;;;;;4940619;28;20643;-89
2022/01/10 01:53:24;;;;;;;0.00;0.00;;;2.00;99.90;;;;;;4944181;28;20090;-90
2022/01/10 01:55:53;;;;;;;0.00;0.00;;;2.00;99.90;;;;;;4978765;28;20050;-90
2022/01/10 01:58:22;;;;;;;0.00;0.00;;;2.10;99.90;;;;;;4962819;28;20415;-89
2022/01/10 02:00:48;;;;;;;0.00;0.00;;;1.90;99.90;;;;;;4979516;28;20507;-89
2022/01/10 02:03:16;;;;;;;1.55;0.00;;;1.90;99.90;;;;;;4962874;28;20050;-90
2022/01/10 02:05:42;;;;;;;0.00;0.00;;;2.00;99.90;;;;;;4962718;28;20058;-89
2022/01/10 02:08:13;;;;;;;0.00;0.00;;;1.90;99.90;;;;;;4962568;28;20054;-89
2022/01/10 02:10:45;;;;;;;0.00;0.00;;;1.80;99.90;;;;;;4979148;28;20051;-89
2022/01/10 02:13:13;;;;;;;0.00;0.00;;;1.90;99.90;;;;;;4977805;28;20058;-89
2022/01/10 02:18:10;;;;;;;0.32;0.20;;;1.80;99.90;;;;;;4977706;28;20166;-90
2022/01/10 02:20:36;;;;;;;0.20;0.00;;;1.90;99.90;;;;;;4961815;28;20077;-90
2022/01/10 02:23:05;;;;;;;0.00;0.00;;;1.90;99.90;;;;;;4978026;28;20038;-90
2022/01/10 02:25:31;;;;;;;0.00;0.00;;;1.80;99.90;;;;;;4984112;28;20054;-90
2022/01/10 02:28:04;;;;;;;3.13;0.30;;;1.80;99.90;;;;;;4997810;28;20188;-90
2022/01/10 02:30:30;;;;;;;0.00;0.00;;;1.80;99.90;;;;;;4997957;28;20049;-90
2022/01/10 02:33:00;;;;;;;0.00;0.00;;;1.80;99.90;;;;;;4998069;28;20053;-89
2022/01/10 02:35:34;;;;;;;0.00;0.00;;;1.80;99.90;;;;;;4998632;28;20057;-90
2022/01/10 02:38:01;;;;;;;0.00;0.00;;;1.80;99.90;;;;;;5014344;28;20042;-90
2022/01/10 02:40:36;;;;;;;0.00;0.00;;;1.80;99.90;;;;;;4997770;28;20123;-90
2022/01/10 02:43:07;;;;;;;0.00;0.00;;;1.80;99.90;;;;;;4997807;28;20053;-90
2022/01/10 02:45:35;;;;;;;0.00;0.00;;;1.90;99.90;;;;;;5014495;28;20089;-89
2022/01/10 02:48:01;;;;;;;0.00;0.00;;;1.70;99.90;;;;;;4998667;28;20158;-89
2022/01/10 02:50:27;;;;;;;0.00;0.00;;;1.80;99.90;;;;;;5014114;28;20497;-90
2022/01/10 02:52:53;;;;;;;0.35;0.35;;;1.70;99.90;;;;;;5027811;28;20098;-90
2022/01/10 02:55:20;;;;;;;0.00;0.00;;;1.70;99.90;;;;;;5053882;28;20056;-90
2022/01/10 02:57:48;;;;;;;0.00;0.00;;;1.70;99.90;;;;;;5036893;28;20108;-90
2022/01/10 03:00:22;;;;;;;0.00;0.00;;;1.60;99.90;;;;;;5037922;28;20140;-90
2022/01/10 03:02:53;;;;;;;0.08;0.00;;;1.60;99.90;;;;;;5037232;28;20048;-90
2022/01/10 03:05:20;;;;;;;0.00;0.00;;;1.50;99.90;;;;;;5053846;28;20431;-90
2022/01/10 03:07:56;;;;;;;0.00;0.00;;;1.60;99.90;;;;;;5037365;28;20053;-90
2022/01/10 03:10:22;;;;;;;0.00;0.00;;;1.60;99.90;;;;;;5036567;28;20044;-90
2022/01/10 03:12:48;;;;;;;0.10;0.00;;;1.60;99.90;;;;;;5036532;28;20702;-90
2022/01/10 03:15:14;;;;;;;0.00;0.00;;;1.50;99.90;;;;;;5037841;28;20049;-90
2022/01/10 03:17:43;;;;;;;0.00;0.00;;;1.50;99.90;;;;;;5036915;28;20550;-89
2022/01/10 03:20:14;;;;;;;0.00;0.00;;;1.50;99.90;;;;;;5036628;28;20056;-90
2022/01/10 03:22:43;;;;;;;0.00;0.00;;;1.50;99.90;;;;;;5037966;28;20381;-90
2022/01/10 03:25:12;;;;;;;0.00;0.00;;;1.50;99.90;;;;;;5037207;28;20045;-90
2022/01/10 03:27:40;;;;;;;0.00;0.00;;;1.50;99.90;;;;;;5053531;28;20098;-90
2022/01/10 03:30:10;;;;;;;0.05;0.05;;;1.50;99.90;;;;;;5036600;28;20048;-90
2022/01/10 03:32:50;;;;;;;0.22;0.22;;;1.40;99.90;;;;;;5037209;28;20110;-90
2022/01/10 03:35:29;;;;;;;0.30;0.00;;;1.40;99.90;;;;;;5036696;28;20492;-90
2022/01/10 03:37:55;;;;;;;0.00;0.00;;;1.40;99.90;;;;;;5035621;28;20057;-91
2022/01/10 03:40:21;;;;;;;0.45;0.13;;;1.70;99.90;;;;;;5052811;28;20052;-90
2022/01/10 03:42:47;;;;;;;0.00;0.00;;;1.40;99.90;;;;;;5037072;28;20041;-89
2022/01/10 03:45:20;;;;;;;0.00;0.00;;;1.40;99.90;;;;;;5051341;28;20084;-90
2022/01/10 03:47:54;;;;;;;0.08;0.00;;;1.30;99.90;;;;;;5053179;28;20047;-90
2022/01/10 03:50:23;;;;;;;0.00;0.00;;;1.30;99.90;;;;;;5036696;28;20122;-90
2022/01/10 03:52:48;;;;;;;0.00;0.00;;;1.40;99.90;;;;;;5035964;28;20056;-90
2022/01/10 03:55:20;;;;;;;0.00;0.00;;;1.30;99.90;;;;;;5036163;28;20408;-90
2022/01/10 03:57:51;;;;;;;0.00;0.00;;;1.30;99.90;;;;;;5036611;28;20418;-90
2022/01/10 04:00:17;;;;;;;0.00;0.00;;;1.30;99.90;;;;;;5052823;28;20092;-90
2022/01/10 04:02:51;;;;;;;0.00;0.00;;;1.30;99.90;;;;;;5035852;28;20148;-90
2022/01/10 04:05:17;;;;;;;0.00;0.00;;;1.30;99.90;;;;;;5052914;28;20492;-90
2022/01/10 04:07:46;;;;;;;0.00;0.00;;;1.30;99.90;;;;;;5036464;28;20075;-90
2022/01/10 04:10:14;;;;;;;0.00;0.00;;;1.20;99.90;;;;;;5036194;28;20080;-90
2022/01/10 04:12:40;;;;;;;0.25;0.00;;;1.30;99.90;;;;;;5035911;28;20044;-90
2022/01/10 04:15:14;;;;;;;0.00;0.00;;;1.20;99.90;;;;;;5037032;28;20511;-90
2022/01/10 04:17:40;;;;;;;0.00;0.00;;;1.10;99.90;;;;;;5036643;28;20056;-90
2022/01/10 04:20:12;;;;;;;0.00;0.00;;;1.10;99.90;;;;;;5052873;28;20056;-90
2022/01/10 04:22:41;;;;;;;0.10;0.10;;;1.00;99.90;;;;;;5036514;28;20053;-91
2022/01/10 04:25:07;;;;;;;0.00;0.00;;;1.00;99.90;;;;;;5052112;28;20048;-90
2022/01/10 04:27:35;;;;;;;0.00;0.00;;;1.00;99.90;;;;;;5035449;28;20408;-89
2022/01/10 04:30:04;;;;;;;0.00;0.00;;;0.90;99.90;;;;;;5035902;28;20595;-90
2022/01/10 04:32:32;;;;;;;0.00;0.00;;;0.90;99.90;;;;;;5036009;28;20056;-90
2022/01/10 04:35:01;;;;;;;0.00;0.00;;;0.90;99.90;;;;;;5036014;28;20091;-90
2022/01/10 04:37:29;;;;;;;0.00;0.00;;;0.90;99.90;;;;;;5035434;28;20048;-90
2022/01/10 04:39:58;;;;;;;0.00;0.00;;;1.10;99.90;;;;;;5036412;28;20045;-90
2022/01/10 04:42:26;;;;;;;0.00;0.00;;;0.80;99.90;;;;;;5035683;28;20044;-90
2022/01/10 04:44:54;;;;;;;0.00;0.00;;;0.70;99.90;;;;;;5052420;28;20114;-90
2022/01/10 04:47:20;;;;;;;0.00;0.00;;;0.70;99.90;;;;;;5035292;28;20057;-90
2022/01/10 04:52:24;;;;;;;0.75;0.10;;;0.70;99.90;;;;;;5056035;28;20056;-90
2022/01/10 04:54:55;;;;;;;0.00;0.00;;;0.80;99.90;;;;;;5039353;28;20163;-90
2022/01/10 04:57:23;;;;;;;0.00;0.00;;;0.70;99.90;;;;;;5039075;28;20045;-90
2022/01/10 04:59:52;;;;;;;0.00;0.00;;;0.70;99.90;;;;;;5040384;28;20092;-90
2022/01/10 05:02:18;;;;;;;0.00;0.00;;;0.90;99.90;;;;;;5039362;28;20102;-90
2022/01/10 05:04:47;;;;;;;0.00;0.00;;;0.90;99.90;;;;;;5039904;28;20049;-90
2022/01/10 05:07:18;;;;;;;0.00;0.00;;;0.70;99.90;;;;;;5055796;28;20049;-90
2022/01/10 05:10:04;;;;;;;0.00;0.00;;;0.70;99.90;;;;;;5056538;28;20056;-90
2022/01/10 05:12:30;;;;;;;0.00;0.00;;;0.70;99.90;;;;;;5039390;28;20135;-90
2022/01/10 05:15:01;;;;;;;0.00;0.00;;;1.00;99.90;;;;;;5056888;28;20076;-90
2022/01/10 05:17:27;;;;;;;0.00;0.00;;;0.70;99.90;;;;;;5055715;28;20037;-90
2022/01/10 05:19:55;;;;;;;0.40;0.00;;;0.70;99.90;;;;;;5055688;28;20055;-90
2022/01/10 05:22:21;;;;;;;0.03;0.03;;;0.70;99.90;;;;;;5039049;28;20049;-90
2022/01/10 05:24:49;;;;;;;0.15;0.08;;;0.70;99.90;;;;;;5039026;28;20102;-90
2022/01/10 05:27:15;;;;;;;0.00;0.00;;;0.70;99.90;;;;;;5055551;28;20040;-90
2022/01/10 05:29:41;;;;;;;0.00;0.00;;;2.30;99.90;;;;;;5038745;28;20053;-90
2022/01/10 05:32:07;;;;;;;0.00;0.00;;;0.70;99.90;;;;;;5038447;28;20052;-90
2022/01/10 05:34:44;;;;;;;0.00;0.00;;;0.70;99.90;;;;;;5039650;28;20131;-90
2022/01/10 05:37:21;;;;;;;0.00;0.00;;;0.70;99.90;;;;;;5039080;28;20106;-90
2022/01/10 05:39:49;;;;;;;0.00;0.00;;;0.70;99.90;;;;;;5038872;28;20053;-89
2022/01/10 05:42:19;;;;;;;0.00;0.00;;;0.70;99.90;;;;;;5055380;28;20369;-90
2022/01/10 05:44:45;;;;;;;0.00;0.00;;;0.50;99.90;;;;;;5055257;28;20120;-90
2022/01/10 05:47:25;;;;;;;0.17;0.08;;;0.60;99.90;;;;;;5054785;28;20048;-90
2022/01/10 05:50:00;;;;;;;0.00;0.00;;;0.60;99.90;;;;;;5038503;28;20132;-90
2022/01/10 05:52:28;;;;;;;0.00;0.00;;;0.60;99.90;;;;;;5038739;28;20179;-90
2022/01/10 05:54:59;;;;;;;0.00;0.00;;;0.60;99.90;;;;;;5055294;28;20037;-91
2022/01/10 05:57:25;;;;;;;4.07;0.68;;;0.60;99.90;;;;;;5055052;28;20060;-90
2022/01/10 06:00:08;;;;;;;0.00;0.00;;;0.60;99.90;;;;;;5038154;28;20041;-90
2022/01/10 06:02:48;;;;;;;0.03;0.00;;;0.60;99.90;;;;;;5038314;28;20045;-90
2022/01/10 06:05:16;;;;;;;0.28;0.28;;;0.70;99.90;;;;;;5038552;28;20045;-90
2022/01/10 06:07:45;;;;;;;0.32;0.10;;;0.60;99.90;;;;;;5037653;28;20045;-89
2022/01/10 06:10:11;;;;;;;0.00;0.00;;;0.60;99.90;;;;;;5039170;28;20144;-90
2022/01/10 06:12:39;;;;;;;0.00;0.00;;;0.60;99.90;;;;;;5038954;28;20464;-90
2022/01/10 06:15:05;;;;;;;0.00;0.00;;;0.60;99.90;;;;;;5037741;28;20076;-89
2022/01/10 06:17:31;;;;;;;0.00;0.00;;;0.60;99.90;;;;;;5037746;28;20040;-89
2022/01/10 06:19:59;;;;;;;0.00;0.00;;;0.50;99.90;;;;;;5055329;28;20051;-90
2022/01/10 06:22:31;;;;;;;0.00;0.00;;;0.10;99.90;;;;;;5038625;28;20072;-89
2022/01/10 06:25:06;;;;;;;0.00;0.00;;;0.40;99.90;;;;;;5037834;28;20451;-89
2022/01/10 06:27:35;;;;;;;0.00;0.00;;;0.40;99.90;;;;;;5038338;28;20049;-90
2022/01/10 06:30:08;;;;;;;0.10;0.10;;;0.80;99.90;;;;;;5038330;28;20041;-89
2022/01/10 06:32:34;;;;;;;0.43;0.40;;;0.30;99.90;;;;;;5037370;28;20484;-89
2022/01/10 06:35:06;;;;;;;0.00;0.00;;;0.30;99.90;;;;;;5037852;28;20102;-89
2022/01/10 06:37:32;;;;;;;0.20;0.20;;;0.30;99.90;;;;;;5037266;28;20044;-89
2022/01/10 06:39:58;;;;;;;0.00;0.00;;;0.20;99.90;;;;;;5037149;28;20060;-89
2022/01/10 06:42:24;;;;;;;0.00;0.00;;;0.30;99.90;;;;;;5037265;28;20472;-89
2022/01/10 06:44:50;;;;;;;0.00;0.00;;;0.30;99.90;;;;;;5054483;28;20064;-89
2022/01/10 06:47:15;;;;;;;0.45;0.30;;;0.30;99.90;;;;;;5036916;28;20052;-90
2022/01/10 06:49:44;;;;;;;0.10;0.08;;;0.40;99.90;;;;;;5036918;28;20088;-89
2022/01/10 06:52:20;;;;;;;0.00;0.00;;;0.30;99.90;;;;;;5036873;28;20068;-89
2022/01/10 06:54:58;;;;;;;0.00;0.00;;;0.30;99.90;;;;;;5053717;28;20053;-90
2022/01/10 06:57:37;;;;;;;0.00;0.00;;;0.30;99.90;;;;;;5053686;28;20049;-89
2022/01/10 07:00:07;;;;;;;0.00;0.00;;;0.40;99.90;;;;;;5037122;28;20437;-89
2022/01/10 07:02:35;;;;;;;0.25;0.25;;;0.30;99.90;;;;;;5036676;28;20090;-89
2022/01/10 07:05:04;;;;;;;1.85;0.35;;;0.30;99.90;;;;;;5053579;28;20045;-90
2022/01/10 07:07:30;;;;;;;3.60;0.93;;;0.30;99.90;;;;;;5053571;28;20446;-89
2022/01/10 07:09:56;;;;;;;0.00;0.00;;;0.30;99.90;;;;;;5036713;28;20057;-89
2022/01/10 07:12:22;;;;;;;0.03;0.03;;;0.30;99.90;;;;;;5052693;28;20037;-89
2022/01/10 07:14:47;;;;;;;0.00;0.00;;;0.30;99.90;;;;;;5037155;28;20052;-90
2022/01/10 07:17:19;;;;;;;0.00;0.00;;;0.50;99.90;;;;;;5053646;28;20095;-90
2022/01/10 07:19:47;;;;;;;0.00;0.00;;;0.30;99.90;;;;;;5036955;28;20080;-90
2022/01/10 07:22:13;;;;;;;0.00;0.00;;;0.30;99.90;;;;;;5053719;28;20442;-90
2022/01/10 07:24:41;;;;;;;0.00;0.00;;;0.50;99.90;;;;;;5036699;28;20094;-90
2022/01/10 07:27:07;;;;;;;0.00;0.00;;;0.20;99.90;;;;;;5037173;28;20037;-89
2022/01/10 07:29:32;;;;;;;0.00;0.00;;;0.20;99.90;;;;;;5037589;28;20052;-89
2022/01/10 07:31:58;;;;;;;0.00;0.00;;;0.20;99.90;;;;;;5036694;28;20071;-89
2022/01/10 07:34:32;;;;;;;0.00;0.00;;;0.20;99.90;;;;;;5036142;28;20063;-89
2022/01/10 07:36:58;;;;;;;0.00;0.00;;;0.20;99.90;;;;;;5036696;28;20503;-89
2022/01/10 07:39:24;;;;;;;0.00;0.00;;;0.30;99.90;;;;;;5036428;28;20040;-89
2022/01/10 07:41:50;;;;;;;0.00;0.00;;;0.20;99.90;;;;;;5036140;28;20049;-89
2022/01/10 07:44:16;;;;;;;0.00;0.00;;;0.40;99.90;;;;;;5036937;28;20079;-89
2022/01/10 07:46:44;;;;;;;0.00;0.00;;;0.20;99.90;;;;;;5036451;28;20400;-90
2022/01/10 07:49:09;;;;;;;0.20;0.20;;;0.30;99.90;;;;;;5036315;28;20051;-89
2022/01/10 07:51:35;;;;;;;0.00;0.00;;;0.30;99.90;;;;;;5052441;28;20049;-89
2022/01/10 07:54:01;;;;;;;0.00;0.00;;;0.30;99.90;;;;;;5036360;28;20059;-89
2022/01/10 07:56:30;;;;;;;0.10;0.10;;;0.30;99.90;;;;;;5036308;28;20060;-89
2022/01/10 07:58:56;;;;;;;0.52;0.52;;;0.30;99.90;;;;;;5036408;28;20045;-89
2022/01/10 08:01:22;;;;;;;0.00;0.00;;;0.60;99.90;;;;;;5052437;28;20044;-89
2022/01/10 08:03:50;;;;;;;0.32;0.10;;;0.30;99.90;;;;;;5035886;28;20040;-89
2022/01/10 08:06:17;;;;;;;0.70;0.45;;;0.40;99.90;;;;;;5036128;28;20045;-89
2022/01/10 08:08:48;;;;;;;0.40;0.40;;;0.40;99.90;;;;;;5052105;28;20106;-89
2022/01/10 08:11:17;;;;;;;0.00;0.00;;;0.40;99.90;;;;;;5035971;28;20400;-89
2022/01/10 08:13:43;;;;;;;0.00;0.00;;;0.50;99.90;;;;;;5052250;28;20049;-89
2022/01/10 08:16:12;;;;;;;0.20;0.10;;;0.40;99.90;;;;;;5036051;28;20136;-89
2022/01/10 08:18:40;;;;;;;0.95;0.45;;;0.40;99.90;;;;;;5052158;28;20049;-89
2022/01/10 08:21:06;;;;;;;0.10;0.10;;;0.30;99.90;;;;;;5035890;28;20103;-89
2022/01/10 08:23:35;;;;;;;0.05;0.05;;;0.80;99.90;;;;;;5036507;28;20141;-89
2022/01/10 08:26:03;;;;;;;0.00;0.00;;;0.30;99.90;;;;;;5039863;28;20136;-89
2022/01/10 08:28:31;;;;;;;0.00;0.00;;;0.30;99.90;;;;;;5056634;28;20048;-89
2022/01/10 08:30:57;;;;;;;0.00;0.00;;;0.30;99.90;;;;;;5056111;28;20511;-89
2022/01/10 08:33:25;;;;;;;0.35;0.35;;;0.30;99.90;;;;;;5040027;28;20084;-89
2022/01/10 08:35:57;;;;;;;0.10;0.10;;;0.30;99.90;;;;;;5056272;28;20071;-89
2022/01/10 08:38:23;;;;;;;0.10;0.10;;;0.30;99.90;;;;;;5039685;28;20047;-88
2022/01/10 08:40:55;;;;;;;0.28;0.28;;;0.30;99.90;;;;;;5039584;28;20049;-91
2022/01/10 08:43:23;;;;;;;;;;;0.30;99.90;;;;;;5040825;28;20519;-88
2022/01/10 08:45:49;;;;;;;0.00;0.00;;;0.20;99.90;;;;;;5039694;28;19920;-88
2022/01/10 08:48:17;;;;;;;0.00;0.00;;;0.20;99.90;;;;;;5039147;28;20049;-88
2022/01/10 08:50:46;;;;;;;0.65;0.10;;;0.20;99.90;;;;;;5039995;28;20059;-88
2022/01/10 08:53:12;;;;;;;0.75;0.25;;;0.30;99.90;;;;;;5055735;28;20060;-88
2022/01/10 08:55:38;;;;;;;0.00;0.00;;;0.30;99.90;;;;;;5055736;28;20098;-88
2022/01/10 08:58:07;;;;;;;0.00;0.00;;;0.30;99.90;;;;;;5039272;28;20468;-89
2022/01/10 09:00:33;;;;;;;0.00;0.00;;;0.60;99.90;;;;;;5039547;28;20049;-89
2022/01/10 09:03:01;;;;;;;0.00;0.00;;;1.50;99.90;;;;;;5039444;28;20060;-89
2022/01/10 09:05:27;;;;;;;0.10;0.10;;;1.80;99.90;;;;;;5039160;28;20052;-88
2022/01/10 09:07:53;;;;;;;0.05;0.05;;;2.20;99.90;;;;;;5039185;28;20045;-89
2022/01/10 09:10:19;;;;;;;0.00;0.00;;;2.70;99.90;;;;;;5039069;28;20483;-89
2022/01/10 09:12:47;;;;;;;0.17;0.08;;;3.30;99.90;;;;;;5038960;28;20086;-89
2022/01/10 09:15:14;;;;;;;0.00;0.00;;;4.50;99.90;;;;;;5056060;28;20045;-89
2022/01/10 09:17:40;;;;;;;0.10;0.10;;;4.60;99.90;;;;;;5038903;28;20476;-88
2022/01/10 09:20:06;;;;;;;0.00;0.00;;;5.10;99.90;;;;;;5055429;28;20067;-88
2022/01/10 09:22:32;;;;;;;0.00;0.00;;;5.60;99.90;;;;;;5038925;28;20488;-89
2022/01/10 09:25:07;;;;;;;0.20;0.17;;;6.10;99.90;;;;;;5038512;28;20120;-89
2022/01/10 09:27:36;;;;;;;0.00;0.00;;;6.30;99.90;;;;;;5055486;28;20041;-90
2022/01/10 09:30:03;;;;;;;0.00;0.00;;;6.60;99.90;;;;;;5037673;28;20143;-89
2022/01/10 09:32:32;;;;;;;0.00;0.00;;;6.80;99.90;;;;;;5039525;28;20485;-90
2022/01/10 09:35:00;;;;;;;0.13;0.13;;;7.10;99.90;;;;;;5038006;28;20041;-90
2022/01/10 09:37:27;;;;;;;0.20;0.13;;;7.50;99.90;;;;;;5038804;28;20041;-90
2022/01/10 09:39:53;;;;;;;1.35;0.95;;;7.70;99.90;;;;;;5055585;28;20378;-89
2022/01/10 09:42:28;;;;;;;0.93;0.13;;;7.80;99.90;;;;;;5038582;28;20049;-89
2022/01/10 09:44:55;;;;;;;0.77;0.52;;;8.10;99.90;;;;;;5055903;28;20045;-90
2022/01/10 09:47:24;;;;;;;0.80;0.68;;;8.50;99.90;;;;;;5038649;28;20481;-90
2022/01/10 09:49:52;;;;;;;0.10;0.10;;;8.60;99.90;;;;;;5038512;28;20037;-90
2022/01/10 09:52:21;;;;;;;0.22;0.22;;;8.80;99.90;;;;;;5038033;28;20053;-90
2022/01/10 09:54:48;;;;;;;0.00;0.00;;;9.10;99.90;;;;;;5038794;28;20144;-90
2022/01/10 09:57:14;;;;;;;0.20;0.10;;;9.30;99.90;;;;;;5039471;28;20067;-90
2022/01/10 09:59:41;;;;;;;0.20;0.10;;;9.50;99.90;;;;;;5055374;28;20484;-91
2022/01/10 10:02:08;;;;;;;0.75;0.38;;;9.70;99.90;;;;;;5038387;28;20059;-91
2022/01/10 10:04:36;;;;;;;0.38;0.10;;;9.70;99.60;;;;;;5038481;28;20048;-91
2022/01/10 10:07:06;;;;;;;0.73;0.60;;;9.70;99.90;;;;;;5038767;28;20040;-90
2022/01/10 10:09:33;;;;;;;0.47;0.10;;;9.70;98.70;;;;;;5038344;28;20114;-90
2022/01/10 10:12:01;;;;;;;0.10;0.10;;;9.80;99.90;;;;;;5038513;28;20439;-91
2022/01/10 10:14:27;;;;;;;0.20;0.20;;;9.40;99.90;;;;;;5039123;28;20103;-91
2022/01/10 10:16:56;;;;;;;0.10;0.10;;;9.10;99.90;;;;;;5038601;28;20053;-91
2022/01/10 10:19:29;;;;;;;0.20;0.20;;;9.20;99.90;;;;;;5038985;28;20049;-90
2022/01/10 10:21:59;;;;;;;2.88;0.30;;;9.30;99.90;;;;;;5038086;28;20040;-91
2022/01/10 10:24:28;;;;;;;0.30;0.30;;;8.80;99.90;;;;;;5054881;28;20045;-91
2022/01/10 10:26:59;;;;;;;0.25;0.10;;;8.80;99.90;;;;;;5037884;28;20057;-91
2022/01/10 10:29:25;;;;;;;0.85;0.30;;;8.70;99.90;;;;;;5038340;28;20051;-90
2022/01/10 10:31:53;;;;;;;0.80;0.75;;;9.10;99.90;;;;;;5038316;28;20048;-90
2022/01/10 10:34:21;;;;;;;0.22;0.22;;;9.70;99.90;;;;;;5054301;28;20045;-90
2022/01/10 10:37:04;;;;;;;1.27;0.77;;;10.10;98.90;;;;;;5037540;28;20040;-90
2022/01/10 10:39:36;;;;;;;0.10;0.10;;;10.30;98.30;;;;;;5037345;28;20063;-90
2022/01/10 10:42:06;;;;;;;0.20;0.10;;;10.50;96.50;;;;;;5037559;28;20041;-89
2022/01/10 10:44:33;;;;;;;0.85;0.10;;;10.60;96.40;;;;;;5037596;28;20493;-89
2022/01/10 10:46:59;;;;;;;0.38;0.30;;;10.60;95.20;;;;;;5037011;28;20041;-89
2022/01/10 10:49:36;;;;;;;0.00;0.00;;;10.10;95.90;;;;;;5037229;28;20102;-89
2022/01/10 10:52:08;;;;;;;1.30;0.50;;;9.80;95.50;;;;;;5037774;28;20068;-90
2022/01/10 10:54:35;;;;;;;0.80;0.10;;;9.70;98.60;;;;;;5037247;28;20135;-89
2022/01/10 10:57:06;;;;;;;0.38;0.10;;;9.60;99.20;;;;;;5054580;28;20450;-89
2022/01/10 10:59:36;;;;;;;0.90;0.70;;;9.80;99.90;;;;;;5037414;28;20055;-89
2022/01/10 11:02:05;;;;;;;0.03;0.03;;;10.10;98.90;;;;;;5053790;28;20491;-89
2022/01/10 11:04:31;;;;;;;0.05;0.05;;;10.30;98.70;;;;;;5036879;28;20051;-90
2022/01/10 11:07:00;;;;;;;0.38;0.25;;;10.80;97.90;;;;;;5037610;28;20048;-89
2022/01/10 11:09:27;;;;;;;0.60;0.25;;;11.60;94.30;;;;;;5053652;28;20049;-89
2022/01/10 11:11:52;;;;;;;0.25;0.20;;;11.60;93.20;;;;;;5037048;28;20164;-91
2022/01/10 11:14:24;;;;;;;4.63;0.85;;;11.80;92.10;;;;;;5037671;28;20103;-90
2022/01/10 11:16:52;;;;;;;0.55;0.45;;;12.00;91.50;;;;;;5053928;28;20079;-91
2022/01/10 11:19:26;;;;;;;0.85;0.63;;;12.30;90.10;;;;;;5036837;28;20436;-90
2022/01/10 11:22:05;;;;;;;0.22;0.20;;;13.00;88.50;;;;;;5036640;28;20049;-90
2022/01/10 11:24:47;;;;;;;2.42;0.70;;;12.60;84.40;;;;;;5037276;28;20137;-91
2022/01/10 11:27:32;;;;;;;0.38;0.30;;;12.70;83.60;;;;;;5054077;28;20408;-90
2022/01/10 11:29:59;;;;;;;0.45;0.28;;;12.70;82.10;;;;;;5037393;28;20045;-90
2022/01/10 11:32:56;;;;;;;1.00;0.38;;;12.80;81.80;;;;;;5053351;28;20056;-91
2022/01/10 11:35:26;;;;;;;0.10;0.10;;;12.90;81.30;;;;;;5036772;28;20083;-90
2022/01/10 11:37:52;;;;;;;0.00;0.00;;;13.00;80.80;;;;;;5053532;28;20037;-90
2022/01/10 11:40:19;;;;;;;1.95;1.45;;;13.00;79.00;;;;;;5036552;28;20045;-91
2022/01/10 11:42:51;;;;;;;0.15;0.15;;;13.10;79.90;;;;;;5036845;28;20052;-90
2022/01/10 11:45:18;;;;;;;0.45;0.45;;;13.10;78.70;;;;;;5037358;28;20091;-91
2022/01/10 11:48:02;;;;;;;0.30;0.20;;;13.20;78.50;;;;;;5037216;28;20415;-91
2022/01/10 11:50:34;;;;;;;1.10;0.65;;;13.20;77.70;;;;;;5037701;28;20048;-91
2022/01/10 11:53:05;;;;;;;2.95;0.70;;;13.10;75.70;;;;;;5035807;28;20053;-90
2022/01/10 11:55:55;;;;;;;0.57;0.50;;;13.00;76.10;;;;;;5035250;28;20109;-92
2022/01/10 11:58:24;;;;;;;0.63;0.45;;;12.80;76.60;;;;;;5035787;28;20056;-91
2022/01/10 12:00:52;;;;;;;0.13;0.03;;;12.80;77.30;;;;;;5036364;28;20033;-91
2022/01/10 12:03:21;;;;;;;6.25;1.10;;;12.80;77.70;;;;;;5036614;28;20555;-91
2022/01/10 12:05:48;;;;;;;0.20;0.20;;;12.70;76.10;;;;;;5036554;28;20041;-92
2022/01/10 12:08:14;;;;;;;0.55;0.55;;;12.80;76.10;;;;;;5036428;28;20041;-91
2022/01/10 12:10:46;;;;;;;0.10;0.00;;;12.80;76.40;;;;;;5037251;28;20163;-92
2022/01/10 12:13:13;;;;;;;0.13;0.10;;;12.90;76.10;;;;;;5036733;28;20110;-90
2022/01/10 12:15:40;;;;;;;0.47;0.20;;;12.50;76.20;;;;;;5053010;28;20045;-91
2022/01/10 12:18:07;;;;;;;0.00;0.00;;;12.40;77.40;;;;;;5036409;28;20088;-91
2022/01/10 12:20:33;;;;;;;0.45;0.43;;;12.00;76.10;;;;;;5036372;28;20206;-91
2022/01/10 12:23:08;;;;;;;0.00;0.00;;;11.70;77.40;;;;;;5053413;28;20381;-92
2022/01/10 12:25:38;;;;;;;1.25;0.30;;;11.30;78.40;;;;;;5036866;28;20052;-92
2022/01/10 12:28:07;;;;;;;0.20;0.10;;;11.50;79.50;;;;;;5052887;28;20481;-90
2022/01/10 12:30:34;;;;;;;0.70;0.70;;;11.20;80.00;;;;;;5036585;28;20057;-92
2022/01/10 12:33:03;;;;;;;0.00;0.00;;;11.00;82.20;;;;;;5036090;28;20496;-91
2022/01/10 12:35:32;;;;;;;0.50;0.20;;;10.70;84.80;;;;;;5035941;28;20045;-92
2022/01/10 12:37:59;;;;;;;0.60;0.17;;;10.60;83.00;;;;;;5036403;28;20045;-92
2022/01/10 12:40:31;;;;;;;0.30;0.20;;;10.20;87.00;;;;;;5036611;28;20139;-92
2022/01/10 12:42:58;;;;;;;0.50;0.43;;;10.10;88.60;;;;;;5036812;28;20060;-92
2022/01/10 12:45:34;;;;;;;0.38;0.38;;;9.90;91.50;;;;;;5036223;28;20045;-92
2022/01/10 12:48:03;;;;;;;0.10;0.10;;;9.50;92.10;;;;;;5036440;28;20076;-91
2022/01/10 12:50:34;;;;;;;1.17;0.80;;;9.40;93.80;;;;;;5036001;28;20049;-91
2022/01/10 12:53:00;;;;;;;6.50;0.65;;;9.30;94.40;;;;;;5036257;28;20111;-91
2022/01/10 12:55:29;;;;;;;0.63;0.35;;;9.10;95.50;;;;;;5036387;28;20049;-91
2022/01/10 12:57:55;;;;;;;0.40;0.10;;;9.00;97.10;;;;;;5036045;28;20045;-92
2022/01/10 13:00:23;;;;;;;0.08;0.05;;;8.80;98.80;;;;;;5035804;28;20049;-92
2022/01/10 13:02:55;;;;;;;0.30;0.20;;;8.70;99.80;;;;;;5036544;28;20496;-92
2022/01/10 13:05:28;;;;;;;0.10;0.10;;;8.70;99.90;;;;;;5037154;28;20060;-92
2022/01/10 13:08:00;;;;;;;1.45;0.40;;;8.60;99.90;;;;;;5053081;28;20123;-92
2022/01/10 13:10:34;;;;;;;0.38;0.00;;;8.50;99.90;;;;;;5036964;28;20059;-92
2022/01/10 13:13:06;;;;;;;1.42;0.57;;;8.40;99.90;;;;;;5039433;28;20037;-91
2022/01/10 13:15:55;;;;;;;0.20;0.10;;;8.30;99.90;;;;;;5039918;28;20461;-92
2022/01/10 13:18:23;;;;;;;0.10;0.10;;;8.30;99.90;;;;;;5040335;28;20119;-91
2022/01/10 13:20:55;;;;;;;0.13;0.13;;;8.20;99.90;;;;;;5056246;28;20136;-92